Time;durP1;ratioP1;P1;durP2;ratioP2;P2;SDS_P1;SDS_P2;PMS_P1;PMS_P2;Temp;Humidity;BMP_temperature;BMP_pressure;BME280_temperature;BME280_humidity;BME280_pressure;Samples;Min_cycle;Max_cycle;Signal;HPM_P1;HPM_P2
2022/04/04 00:02:22;;;;;;;10.13;7.73;;;3.10;99.90;;;;;;5075458;28;20192;-81
2022/04/04 00:04:49;;;;;;;9.53;4.30;;;3.10;99.90;;;;;;5074775;28;20195;-82
2022/04/04 00:07:16;;;;;;;5.63;4.93;;;3.10;99.90;;;;;;5075012;28;20215;-81
2022/04/04 00:09:43;;;;;;;4.80;3.50;;;3.10;99.90;;;;;;5074629;28;20243;-80
2022/04/04 00:12:11;;;;;;;6.37;3.50;;;3.10;99.90;;;;;;5075000;28;20196;-80
2022/04/04 00:14:39;;;;;;;7.77;3.57;;;3.20;1.00;;;;;;5074641;28;20195;-80
2022/04/04 00:17:06;;;;;;;5.90;3.30;;;3.30;1.00;;;;;;5074146;28;20188;-80
2022/04/04 00:19:33;;;;;;;4.40;3.07;;;3.30;1.00;;;;;;5074486;28;20184;-80
2022/04/04 00:22:00;;;;;;;8.77;4.13;;;3.30;99.90;;;;;;5074426;28;20719;-80
2022/04/04 00:24:28;;;;;;;6.73;3.53;;;3.30;1.00;;;;;;5074767;28;20196;-80
2022/04/04 00:26:55;;;;;;;9.00;4.20;;;3.40;1.00;;;;;;5074789;28;20344;-80
2022/04/04 00:29:22;;;;;;;3.77;2.90;;;3.40;1.00;;;;;;5074433;28;20652;-80
2022/04/04 00:31:50;;;;;;;5.83;3.20;;;3.40;1.00;;;;;;5074673;28;20249;-81
2022/04/04 00:34:17;;;;;;;6.57;2.90;;;3.40;1.00;;;;;;5074763;28;20969;-81
2022/04/04 00:36:45;;;;;;;4.50;3.10;;;3.40;1.00;;;;;;5074256;28;20249;-81
2022/04/04 00:39:15;;;;;;;3.87;2.80;;;3.50;1.00;;;;;;5074161;28;20645;-80
2022/04/04 00:41:43;;;;;;;5.93;3.40;;;3.60;1.00;;;;;;5066051;28;20208;-80
2022/04/04 00:44:10;;;;;;;8.17;4.40;;;3.50;1.00;;;;;;5054341;28;20204;-81
2022/04/04 00:46:40;;;;;;;9.07;5.10;;;3.60;1.00;;;;;;5053924;28;20723;-80
2022/04/04 00:49:09;;;;;;;15.17;12.83;;;3.60;1.00;;;;;;5054377;28;20608;-81
2022/04/04 00:51:36;;;;;;;5.30;3.90;;;3.50;1.00;;;;;;5054150;28;20226;-80
2022/04/04 00:54:04;;;;;;;7.73;5.50;;;3.50;1.00;;;;;;5054222;28;20188;-82
2022/04/04 00:56:35;;;;;;;6.77;4.57;;;3.50;1.00;;;;;;5053704;28;20606;-80
2022/04/04 00:59:05;;;;;;;6.50;5.80;;;3.40;1.00;;;;;;5054186;28;20185;-80
2022/04/04 01:01:32;;;;;;;5.93;4.30;;;3.30;1.00;;;;;;5054098;28;20188;-80
2022/04/04 01:03:59;;;;;;;6.30;3.70;;;3.30;1.00;;;;;;5053640;28;20268;-80
2022/04/04 01:06:27;;;;;;;5.03;3.27;;;3.20;1.00;;;;;;5054042;28;20219;-80
2022/04/04 01:08:54;;;;;;;4.47;2.43;;;3.20;1.00;;;;;;5053848;28;20650;-80
2022/04/04 01:11:21;;;;;;;4.53;2.73;;;3.10;1.00;;;;;;5058418;28;20220;-80
2022/04/04 01:13:49;;;;;;;7.50;2.60;;;3.10;1.00;;;;;;5073870;28;20257;-80
2022/04/04 01:16:17;;;;;;;5.20;2.93;;;3.00;1.00;;;;;;5073919;28;20226;-80
2022/04/04 01:18:44;;;;;;;5.60;3.80;;;3.00;1.00;;;;;;5073883;28;20601;-80
2022/04/04 01:21:11;;;;;;;4.80;3.33;;;3.00;1.00;;;;;;5073350;28;20187;-80
2022/04/04 01:23:43;;;;;;;5.77;3.33;;;3.00;1.00;;;;;;5073340;28;20238;-80
2022/04/04 01:26:13;;;;;;;7.57;3.53;;;2.90;1.00;;;;;;5073235;28;20656;-80
2022/04/04 01:28:41;;;;;;;5.10;4.57;;;2.80;1.00;;;;;;5073217;28;20604;-80
2022/04/04 01:31:09;;;;;;;5.57;3.90;;;2.80;1.00;;;;;;5073104;28;20192;-81
2022/04/04 01:33:37;;;;;;;5.53;3.50;;;2.80;1.00;;;;;;5073436;28;20286;-80
2022/04/04 01:36:05;;;;;;;3.83;3.03;;;2.70;1.00;;;;;;5073485;28;20191;-80
2022/04/04 01:38:32;;;;;;;7.67;3.53;;;2.70;1.00;;;;;;5073400;28;20546;-80
2022/04/04 01:40:59;;;;;;;7.07;3.70;;;2.70;1.00;;;;;;5071381;28;20609;-80
2022/04/04 01:43:27;;;;;;;5.87;3.70;;;2.60;1.00;;;;;;5053448;28;20199;-80
2022/04/04 01:48:39;;;;;;;5.00;3.00;;;2.60;1.00;;;;;;5053127;28;20580;-80
2022/04/04 01:51:06;;;;;;;5.00;2.90;;;2.60;1.00;;;;;;5068864;28;20249;-80
2022/04/04 01:53:33;;;;;;;5.83;3.33;;;2.60;1.00;;;;;;5072874;28;20241;-80
2022/04/04 01:56:03;;;;;;;14.83;3.60;;;2.60;1.00;;;;;;5073000;28;20600;-81
2022/04/04 01:58:32;;;;;;;8.30;3.40;;;2.60;1.00;;;;;;5073545;28;20203;-81
2022/04/04 02:01:01;;;;;;;4.97;2.87;;;2.60;1.00;;;;;;5072883;28;20188;-81
2022/04/04 02:03:29;;;;;;;5.73;3.10;;;2.60;1.00;;;;;;5073061;28;20198;-80
2022/04/04 02:05:56;;;;;;;6.87;3.20;;;2.70;1.00;;;;;;5072762;28;20192;-81
2022/04/04 02:08:24;;;;;;;5.37;3.63;;;2.70;1.00;;;;;;5072580;28;20573;-80
2022/04/04 02:10:51;;;;;;;72.87;42.43;;;2.70;1.00;;;;;;5070916;28;20696;-81
2022/04/04 02:13:18;;;;;;;7.67;4.17;;;2.80;1.00;;;;;;5072046;28;20249;-80
2022/04/04 02:15:46;;;;;;;4.83;3.43;;;2.80;1.00;;;;;;5071669;28;20196;-80
2022/04/04 02:18:13;;;;;;;6.60;4.10;;;2.80;1.00;;;;;;5072268;28;20245;-80
2022/04/04 02:20:40;;;;;;;8.20;4.40;;;2.90;1.00;;;;;;5071874;28;20275;-80
2022/04/04 02:23:07;;;;;;;5.50;3.67;;;2.90;1.00;;;;;;5072649;28;20222;-80
2022/04/04 02:25:34;;;;;;;5.07;3.77;;;2.90;1.00;;;;;;5072406;28;20721;-80
2022/04/04 02:28:01;;;;;;;4.63;3.17;;;2.90;1.00;;;;;;5072520;28;20224;-80
2022/04/04 02:30:28;;;;;;;4.03;3.10;;;3.00;1.00;;;;;;5072734;28;20192;-81
2022/04/04 02:32:57;;;;;;;7.30;3.90;;;2.90;1.00;;;;;;5072600;28;20191;-80
2022/04/04 02:35:24;;;;;;;7.17;3.40;;;3.00;1.00;;;;;;5072626;28;20196;-80
2022/04/04 02:37:51;;;;;;;6.20;3.10;;;2.90;1.00;;;;;;5072369;28;20195;-81
2022/04/04 02:40:18;;;;;;;5.03;3.30;;;2.90;1.00;;;;;;5072081;28;20192;-80
2022/04/04 02:42:45;;;;;;;5.00;3.67;;;2.80;1.00;;;;;;5071281;28;20199;-80
2022/04/04 02:45:12;;;;;;;5.07;2.93;;;2.80;1.00;;;;;;5072218;28;20241;-82
2022/04/04 02:47:40;;;;;;;8.60;3.60;;;2.70;1.00;;;;;;5072300;28;20337;-81
2022/04/04 02:50:09;;;;;;;5.03;3.43;;;2.70;1.00;;;;;;5071913;28;20599;-80
2022/04/04 02:52:37;;;;;;;4.97;3.47;;;2.60;1.00;;;;;;5058191;28;20188;-80
2022/04/04 02:57:46;;;;;;;9.40;4.33;;;2.50;1.00;;;;;;5051773;28;20177;-81
2022/04/04 03:00:14;;;;;;;6.70;4.33;;;2.50;1.00;;;;;;5051732;28;20196;-80
2022/04/04 03:02:41;;;;;;;5.70;4.20;;;2.40;1.00;;;;;;5052146;28;20204;-80
2022/04/04 03:05:10;;;;;;;5.63;4.60;;;2.40;1.00;;;;;;5052274;28;20197;-81
2022/04/04 03:07:37;;;;;;;7.57;5.40;;;2.40;1.00;;;;;;5052031;28;20212;-80
2022/04/04 03:10:04;;;;;;;8.13;3.90;;;2.40;1.00;;;;;;5051839;28;20282;-80
2022/04/04 03:12:31;;;;;;;7.90;3.83;;;2.30;1.00;;;;;;5066635;28;20549;-80
2022/04/04 03:14:58;;;;;;;7.90;4.10;;;2.30;1.00;;;;;;5072288;28;20196;-81
2022/04/04 03:17:26;;;;;;;6.47;3.60;;;2.30;1.00;;;;;;5071899;28;20200;-81
2022/04/04 03:19:53;;;;;;;8.67;4.30;;;2.30;1.00;;;;;;5071913;28;20192;-79
2022/04/04 03:22:21;;;;;;;6.87;4.30;;;2.30;1.00;;;;;;5071887;28;20195;-80
2022/04/04 03:24:56;;;;;;;10.43;5.07;;;2.30;1.00;;;;;;5071856;28;20188;-82
2022/04/04 03:27:23;;;;;;;9.60;5.50;;;2.30;1.00;;;;;;5073430;28;20588;-81
2022/04/04 03:29:50;;;;;;;7.90;4.63;;;2.30;1.00;;;;;;5075790;28;20261;-79
2022/04/04 03:32:17;;;;;;;6.70;4.80;;;2.20;1.00;;;;;;5075697;28;20249;-79
2022/04/04 03:34:44;;;;;;;7.87;5.67;;;2.20;1.00;;;;;;5075368;28;20234;-81
2022/04/04 03:37:12;;;;;;;7.97;4.77;;;2.20;1.00;;;;;;5075205;28;20761;-81
2022/04/04 03:39:40;;;;;;;7.10;4.60;;;2.20;1.00;;;;;;5075651;28;20582;-79
2022/04/04 03:42:07;;;;;;;8.67;5.23;;;2.20;1.00;;;;;;5074385;28;20721;-79
2022/04/04 03:44:34;;;;;;;8.50;5.30;;;2.10;1.00;;;;;;5075095;28;20192;-79
2022/04/04 03:47:02;;;;;;;10.97;5.27;;;2.10;8.10;;;;;;5075026;28;20645;-80
2022/04/04 03:49:29;;;;;;;6.90;4.20;;;2.00;24.20;;;;;;5075567;28;20188;-79
2022/04/04 03:51:56;;;;;;;7.60;5.00;;;2.00;51.40;;;;;;5067214;28;20652;-78
2022/04/04 03:54:23;;;;;;;7.67;4.93;;;2.00;89.60;;;;;;5055287;28;20250;-81
2022/04/04 03:56:52;;;;;;;6.57;4.60;;;1.90;99.90;;;;;;5055228;28;20197;-81
2022/04/04 03:59:19;;;;;;;7.17;4.73;;;1.90;99.90;;;;;;5054848;28;20950;-80
2022/04/04 04:01:46;;;;;;;9.07;5.20;;;1.90;99.90;;;;;;5055310;28;20573;-81
2022/04/04 04:04:13;;;;;;;9.87;5.10;;;2.00;99.90;;;;;;5055079;28;20231;-81
2022/04/04 04:06:40;;;;;;;10.03;4.83;;;2.00;99.90;;;;;;5055141;28;20281;-81
2022/04/04 04:09:06;;;;;;;9.33;5.20;;;2.00;99.90;;;;;;5054806;28;20617;-82
2022/04/04 04:11:34;;;;;;;9.80;5.27;;;2.00;99.90;;;;;;5062337;28;20545;-81
2022/04/04 04:14:03;;;;;;;7.00;5.20;;;2.00;99.90;;;;;;5074961;28;20187;-82
2022/04/04 04:16:30;;;;;;;9.13;5.53;;;2.00;99.90;;;;;;5075080;28;20278;-81
2022/04/04 04:18:57;;;;;;;9.33;6.17;;;2.00;99.90;;;;;;5075176;28;20254;-80
2022/04/04 04:21:24;;;;;;;9.83;5.63;;;2.00;99.90;;;;;;5074094;28;20241;-81
2022/04/04 04:23:52;;;;;;;10.63;5.77;;;2.00;99.90;;;;;;5074537;28;20601;-82
2022/04/04 04:26:19;;;;;;;10.73;5.90;;;2.00;99.90;;;;;;5074719;28;20252;-82
2022/04/04 04:32:22;;;;;;;9.83;5.83;;;2.00;99.90;;;;;;5075958;28;20557;-83
2022/04/04 04:34:50;;;;;;;12.47;6.23;;;2.10;99.90;;;;;;5075400;28;20180;-80
2022/04/04 04:37:17;;;;;;;9.33;5.67;;;2.10;99.90;;;;;;5074652;28;20192;-80
2022/04/04 04:39:44;;;;;;;13.00;6.17;;;2.10;99.90;;;;;;5074889;28;20195;-81
2022/04/04 04:42:11;;;;;;;8.23;6.00;;;2.20;99.90;;;;;;5060660;28;20196;-78
2022/04/04 04:44:40;;;;;;;8.83;5.80;;;2.20;99.90;;;;;;5055137;28;20192;-79
2022/04/04 04:47:08;;;;;;;9.40;6.17;;;2.20;99.90;;;;;;5054406;28;20201;-81
2022/04/04 04:49:35;;;;;;;7.80;5.60;;;2.30;99.90;;;;;;5053984;28;20700;-81
2022/04/04 04:52:02;;;;;;;11.70;6.90;;;2.30;99.90;;;;;;5054240;28;20263;-80
2022/04/04 04:54:30;;;;;;;9.77;6.17;;;2.40;99.90;;;;;;5054409;28;20254;-79
2022/04/04 04:56:58;;;;;;;10.07;5.90;;;2.40;99.90;;;;;;5054658;28;20289;-80
2022/04/04 04:59:25;;;;;;;10.97;7.23;;;2.50;99.90;;;;;;5054469;28;20277;-79
2022/04/04 05:01:54;;;;;;;14.70;6.43;;;2.50;99.90;;;;;;5067062;28;20639;-80
2022/04/04 05:04:21;;;;;;;13.47;6.27;;;2.60;99.90;;;;;;5067348;28;20210;-80
2022/04/04 05:06:51;;;;;;;9.80;6.43;;;2.70;99.90;;;;;;5074066;28;20246;-81
2022/04/04 05:09:18;;;;;;;12.93;7.67;;;2.70;99.90;;;;;;5073483;28;20208;-82
2022/04/04 05:11:45;;;;;;;11.23;7.37;;;2.80;99.90;;;;;;5074481;28;20176;-81
2022/04/04 05:14:15;;;;;;;12.33;7.10;;;2.90;99.90;;;;;;5075201;28;20194;-81
2022/04/04 05:16:43;;;;;;;12.20;7.13;;;3.00;99.90;;;;;;5074788;28;20615;-80
2022/04/04 05:19:13;;;;;;;14.27;7.40;;;3.10;99.90;;;;;;5075013;28;20184;-79
2022/04/04 05:21:40;;;;;;;11.40;6.87;;;3.10;99.90;;;;;;5074276;28;20188;-79
2022/04/04 05:24:08;;;;;;;9.37;6.30;;;3.20;80.90;;;;;;5076754;28;20180;-80
2022/04/04 05:26:36;;;;;;;7.73;6.20;;;3.30;24.90;;;;;;5076153;28;20279;-80
2022/04/04 05:29:03;;;;;;;15.60;6.83;;;3.40;1.00;;;;;;5072436;28;20212;-80
2022/04/04 05:31:31;;;;;;;31.00;7.60;;;3.50;1.00;;;;;;5074805;28;20249;-81
2022/04/04 05:33:58;;;;;;;20.17;8.20;;;3.50;1.00;;;;;;5075914;28;20214;-80
2022/04/04 05:36:28;;;;;;;9.33;5.87;;;3.70;1.00;;;;;;5073739;28;20192;-81
2022/04/04 05:38:55;;;;;;;10.13;6.10;;;3.80;1.00;;;;;;5074985;28;20198;-79
2022/04/04 05:41:22;;;;;;;7.97;5.43;;;3.80;1.00;;;;;;5073757;28;20238;-79
2022/04/04 05:43:50;;;;;;;9.00;6.30;;;3.80;1.00;;;;;;5075388;28;20649;-80
2022/04/04 05:46:18;;;;;;;8.57;6.40;;;3.90;1.00;;;;;;5068086;28;20615;-79
2022/04/04 05:48:46;;;;;;;12.07;5.37;;;3.90;1.00;;;;;;5076074;28;20270;-80
2022/04/04 05:51:23;;;;;;;9.20;6.30;;;4.00;1.00;;;;;;5073831;28;20238;-80
2022/04/04 05:54:01;;;;;;;7.17;5.80;;;4.20;1.00;;;;;;5061838;28;20187;-82
2022/04/04 05:56:28;;;;;;;8.30;5.67;;;4.50;1.00;;;;;;5057613;28;20565;-81
2022/04/04 05:58:55;;;;;;;7.40;4.77;;;5.00;1.00;;;;;;5054797;28;20200;-81
2022/04/04 06:01:22;;;;;;;5.43;4.73;;;5.50;1.00;;;;;;5052795;28;20200;-80
2022/04/04 06:03:50;;;;;;;5.87;4.60;;;5.90;1.00;;;;;;5055715;28;20239;-80
2022/04/04 06:06:17;;;;;;;9.33;4.93;;;6.10;1.00;;;;;;5053620;28;20235;-79
2022/04/04 06:08:44;;;;;;;8.53;5.20;;;6.00;99.90;;;;;;5053731;28;20308;-80
2022/04/04 06:11:12;;;;;;;10.27;5.90;;;5.90;99.90;;;;;;5072532;28;20226;-81
2022/04/04 06:13:40;;;;;;;9.00;5.43;;;6.00;1.00;;;;;;5074059;28;20195;-80
2022/04/04 06:16:08;;;;;;;7.43;4.83;;;6.50;1.00;;;;;;5074665;28;20200;-81
2022/04/04 06:18:36;;;;;;;6.20;4.70;;;7.00;1.00;;;;;;5072414;28;20201;-80
2022/04/04 06:21:03;;;;;;;6.40;4.80;;;7.40;99.90;;;;;;5053476;28;20212;-80
2022/04/04 06:23:33;;;;;;;6.97;4.20;;;7.90;99.90;;;;;;5066969;28;20220;-81
2022/04/04 06:26:00;;;;;;;4.75;4.20;;;8.40;99.90;;;;;;5073223;28;20309;-80
2022/04/04 06:28:31;;;;;;;8.03;4.70;;;8.80;99.90;;;;;;5074834;28;20456;-79
2022/04/04 06:30:59;;;;;;;5.40;4.10;;;9.20;92.80;;;;;;5066514;28;20277;-81
2022/04/04 06:33:27;;;;;;;8.27;4.30;;;9.50;99.90;;;;;;5053183;28;20277;-80
2022/04/04 06:35:54;;;;;;;6.27;4.77;;;10.20;91.30;;;;;;5053121;28;20204;-80
2022/04/04 06:38:21;;;;;;;8.70;4.90;;;10.80;1.30;;;;;;5053303;28;20245;-80
2022/04/04 06:40:51;;;;;;;7.23;4.37;;;11.10;1.00;;;;;;5073208;28;20188;-80
2022/04/04 06:43:18;;;;;;;5.27;4.20;;;11.50;1.00;;;;;;5074868;28;20652;-80
2022/04/04 06:45:49;;;;;;;6.13;4.30;;;12.10;1.00;;;;;;5075224;28;20280;-81
2022/04/04 06:48:16;;;;;;;6.07;4.13;;;12.40;1.00;;;;;;5073262;28;20214;-80
2022/04/04 06:50:43;;;;;;;6.57;3.70;;;12.80;1.00;;;;;;5074003;28;20203;-81
2022/04/04 06:53:10;;;;;;;5.40;4.00;;;13.10;1.00;;;;;;5074212;28;20303;-80
2022/04/04 06:55:39;;;;;;;4.83;3.83;;;13.20;1.00;;;;;;5076234;28;20274;-80
2022/04/04 06:58:15;;;;;;;4.23;3.63;;;13.30;1.00;;;;;;5072845;28;20660;-81
2022/04/04 07:00:42;;;;;;;4.67;3.77;;;13.30;1.00;;;;;;5072606;28;20245;-79
2022/04/04 07:03:11;;;;;;;4.80;4.00;;;13.40;1.00;;;;;;5077659;28;20634;-81
2022/04/04 07:05:38;;;;;;;5.47;3.50;;;13.50;1.00;;;;;;5079764;28;20196;-80
2022/04/04 07:08:06;;;;;;;8.90;4.10;;;13.60;1.00;;;;;;5078637;28;20209;-79
2022/04/04 07:10:34;;;;;;;4.70;3.60;;;13.80;1.00;;;;;;5077544;28;20231;-79
2022/04/04 07:13:01;;;;;;;4.50;3.40;;;13.80;1.00;;;;;;5078396;28;20201;-79
2022/04/04 07:15:29;;;;;;;4.32;3.53;;;13.90;1.00;;;;;;5077232;28;20237;-80
2022/04/04 07:17:56;;;;;;;5.83;3.57;;;14.00;1.00;;;;;;5075920;28;20591;-80
2022/04/04 07:20:24;;;;;;;3.65;3.20;;;14.20;1.00;;;;;;5075930;28;20197;-80
2022/04/04 07:22:52;;;;;;;9.10;3.58;;;14.50;1.00;;;;;;5076767;28;20206;-79
2022/04/04 07:25:21;;;;;;;16.95;7.85;;;14.40;1.00;;;;;;5076320;28;20202;-79
2022/04/04 07:27:49;;;;;;;6.47;4.50;;;14.10;1.00;;;;;;5077392;28;20281;-80
2022/04/04 07:30:19;;;;;;;13.52;6.60;;;14.20;1.00;;;;;;5074380;28;20623;-80
2022/04/04 07:32:47;;;;;;;30.30;12.95;;;14.00;1.00;;;;;;5062659;28;20182;-81
2022/04/04 07:35:15;;;;;;;7.67;3.90;;;13.80;1.00;;;;;;5076359;28;20191;-81
2022/04/04 07:37:46;;;;;;;4.70;3.20;;;13.80;1.00;;;;;;5074995;28;20196;-78
2022/04/04 07:40:15;;;;;;;4.53;3.37;;;13.70;1.00;;;;;;5079364;28;20187;-80
2022/04/04 07:42:44;;;;;;;6.57;3.23;;;13.70;1.00;;;;;;5076799;28;20282;-80
2022/04/04 07:45:13;;;;;;;9.23;3.50;;;13.30;1.00;;;;;;5078228;28;20200;-79
2022/04/04 07:47:41;;;;;;;8.57;3.67;;;13.20;1.00;;;;;;5079193;28;20196;-79
2022/04/04 07:50:11;;;;;;;4.70;3.10;;;13.00;1.00;;;;;;5077063;28;20214;-78
2022/04/04 07:52:39;;;;;;;12.80;3.40;;;12.80;1.00;;;;;;5079678;28;20202;-79
2022/04/04 07:55:09;;;;;;;8.10;3.47;;;12.60;1.00;;;;;;5081291;28;20247;-84
2022/04/04 07:57:37;;;;;;;9.03;4.33;;;12.20;1.00;;;;;;5081163;28;20218;-78
2022/04/04 08:00:05;;;;;;;7.20;4.33;;;11.90;1.00;;;;;;5079458;28;20297;-78
2022/04/04 08:02:32;;;;;;;7.83;4.00;;;11.70;1.00;;;;;;5064494;28;20576;-78
2022/04/04 08:04:59;;;;;;;9.17;4.73;;;11.30;1.00;;;;;;5074862;28;20564;-78
2022/04/04 08:07:27;;;;;;;5.30;3.67;;;11.00;1.00;;;;;;5075899;28;20182;-80
2022/04/04 08:09:54;;;;;;;13.63;4.30;;;10.70;1.00;;;;;;5063388;28;20233;-79
2022/04/04 08:12:26;;;;;;;3.93;3.53;;;10.60;1.00;;;;;;5075228;28;20646;-79
2022/04/04 08:14:53;;;;;;;5.10;3.47;;;10.30;1.00;;;;;;5071840;28;20483;-80
2022/04/04 08:17:20;;;;;;;7.47;4.40;;;10.10;1.00;;;;;;5077458;28;20181;-79
2022/04/04 08:19:48;;;;;;;6.70;4.03;;;10.00;1.00;;;;;;5076725;28;20203;-80
2022/04/04 08:22:15;;;;;;;5.70;3.70;;;10.10;1.00;;;;;;5076589;28;20283;-79
2022/04/04 08:24:42;;;;;;;4.77;3.80;;;10.20;1.00;;;;;;5076672;28;20197;-81
2022/04/04 08:27:10;;;;;;;4.67;3.60;;;10.20;1.00;;;;;;5074805;28;20248;-80
2022/04/04 08:29:38;;;;;;;5.67;3.50;;;10.30;1.00;;;;;;5073711;28;20223;-79
2022/04/04 08:32:06;;;;;;;8.83;3.90;;;10.30;1.00;;;;;;5076600;28;20195;-80
2022/04/04 08:34:33;;;;;;;3.97;3.53;;;10.50;1.00;;;;;;5074291;28;20711;-78
2022/04/04 08:37:00;;;;;;;5.20;3.20;;;10.80;1.00;;;;;;5076567;28;20197;-79
2022/04/04 08:39:28;;;;;;;6.73;3.80;;;11.00;1.00;;;;;;5063690;28;20621;-79
2022/04/04 08:41:56;;;;;;;10.47;5.03;;;11.00;1.00;;;;;;5057345;28;20192;-80
2022/04/04 08:44:24;;;;;;;7.23;4.00;;;10.90;1.00;;;;;;5059568;28;20193;-82
2022/04/04 08:46:53;;;;;;;8.40;4.03;;;11.00;1.00;;;;;;5057307;28;20187;-80
2022/04/04 08:49:21;;;;;;;7.47;4.70;;;11.00;1.00;;;;;;5056610;28;20267;-78
2022/04/04 08:51:50;;;;;;;6.80;4.50;;;11.20;1.00;;;;;;5062314;28;20194;-83
2022/04/04 08:54:18;;;;;;;4.80;4.30;;;11.30;1.00;;;;;;5057062;28;20672;-81
2022/04/04 08:56:45;;;;;;;6.37;4.60;;;11.30;1.00;;;;;;5063906;28;20203;-79
2022/04/04 08:59:13;;;;;;;9.93;5.00;;;11.10;1.00;;;;;;5077437;28;20654;-83
2022/04/04 09:01:40;;;;;;;12.00;4.47;;;11.00;1.00;;;;;;5076645;28;20284;-79
2022/04/04 09:04:16;;;;;;;12.43;5.37;;;10.80;1.00;;;;;;5076779;28;20188;-82
2022/04/04 09:06:53;;;;;;;7.47;5.10;;;10.70;1.00;;;;;;5076877;28;20528;-81
2022/04/04 09:09:22;;;;;;;6.10;4.40;;;10.50;1.00;;;;;;5069679;28;20202;-79
2022/04/04 09:11:54;;;;;;;9.93;4.33;;;10.30;1.00;;;;;;5054692;28;20188;-79
2022/04/04 09:14:24;;;;;;;10.83;4.80;;;10.20;1.00;;;;;;5056966;28;20176;-80
2022/04/04 09:16:56;;;;;;;10.57;5.63;;;10.00;1.00;;;;;;5075306;28;20565;-79
2022/04/04 09:19:32;;;;;;;36.13;23.97;;;9.80;1.00;;;;;;5074435;28;20196;-78
2022/04/04 09:22:07;;;;;;;12.60;9.10;;;9.70;1.00;;;;;;5073896;28;20189;-78
2022/04/04 09:24:51;;;;;;;13.57;5.67;;;9.80;1.00;;;;;;5074035;28;20185;-79
2022/04/04 09:27:23;;;;;;;9.20;5.30;;;9.70;1.00;;;;;;5074790;28;20184;-79
2022/04/04 09:29:51;;;;;;;9.27;4.77;;;9.40;1.00;;;;;;5078601;28;20211;-78
2022/04/04 09:32:19;;;;;;;9.67;4.90;;;9.30;1.00;;;;;;5073559;28;20242;-78
2022/04/04 09:35:00;;;;;;;18.93;6.20;;;9.20;1.00;;;;;;5072887;28;20193;-78
2022/04/04 09:37:30;;;;;;;11.40;5.07;;;9.30;1.00;;;;;;5062718;28;20176;-79
2022/04/04 09:40:05;;;;;;;22.33;6.60;;;9.30;1.00;;;;;;5072725;28;20265;-79
2022/04/04 09:42:32;;;;;;;16.53;5.30;;;9.40;1.00;;;;;;5070807;28;20172;-79
2022/04/04 09:45:04;;;;;;;13.20;5.17;;;9.30;1.00;;;;;;5073398;28;20267;-79
2022/04/04 09:47:52;;;;;;;10.13;4.90;;;9.40;1.00;;;;;;5073530;28;20203;-79
2022/04/04 09:50:43;;;;;;;7.53;5.30;;;9.60;1.00;;;;;;5073169;28;20571;-79
2022/04/04 09:53:15;;;;;;;16.20;6.30;;;9.60;1.00;;;;;;5075586;28;20181;-79
2022/04/04 09:55:45;;;;;;;11.30;6.27;;;9.60;1.00;;;;;;5068316;28;20643;-79
2022/04/04 09:58:15;;;;;;;13.20;6.50;;;9.70;1.00;;;;;;5071681;28;20586;-78
2022/04/04 10:00:44;;;;;;;9.87;5.47;;;9.70;1.00;;;;;;5073030;28;20610;-78
2022/04/04 10:03:13;;;;;;;14.50;5.73;;;9.80;1.00;;;;;;5073033;28;20192;-79
2022/04/04 10:05:43;;;;;;;9.77;5.33;;;9.80;1.00;;;;;;5072592;28;20609;-79
2022/04/04 10:08:13;;;;;;;8.93;5.37;;;9.90;1.00;;;;;;5073028;28;20248;-79
2022/04/04 10:10:44;;;;;;;45.43;7.03;;;10.00;1.00;;;;;;5055807;28;20229;-82
2022/04/04 10:16:53;;;;;;;24.20;5.70;;;10.00;1.00;;;;;;5072493;28;20210;-78
2022/04/04 10:19:24;;;;;;;12.23;4.90;;;10.00;1.00;;;;;;5075119;28;20196;-80
2022/04/04 10:21:52;;;;;;;15.97;4.93;;;10.00;1.00;;;;;;5075800;28;20192;-78
2022/04/04 10:24:20;;;;;;;19.37;5.83;;;10.10;1.00;;;;;;5072150;28;20654;-78
2022/04/04 10:26:50;;;;;;;17.40;5.00;;;10.20;1.00;;;;;;5073545;28;20231;-78
2022/04/04 10:29:20;;;;;;;32.93;5.67;;;10.30;1.00;;;;;;5072520;28;20217;-78
2022/04/04 10:31:50;;;;;;;16.10;5.00;;;10.20;1.00;;;;;;5072759;28;20200;-78
2022/04/04 10:34:18;;;;;;;12.63;6.00;;;10.10;1.00;;;;;;5074498;28;20291;-79
2022/04/04 10:36:59;;;;;;;18.47;7.30;;;10.10;1.00;;;;;;5078984;28;20194;-82
2022/04/04 10:39:50;;;;;;;10.83;4.77;;;10.10;1.00;;;;;;5067856;28;20328;-78
2022/04/04 10:42:28;;;;;;;14.40;5.47;;;10.10;1.00;;;;;;5047294;28;20645;-78
2022/04/04 10:45:00;;;;;;;14.67;4.83;;;10.10;1.00;;;;;;5075034;28;20196;-79
2022/04/04 10:47:29;;;;;;;9.40;5.53;;;10.10;1.00;;;;;;5056442;28;20182;-79
2022/04/04 10:49:56;;;;;;;13.93;4.60;;;10.20;1.00;;;;;;5053289;28;20225;-81
2022/04/04 10:52:42;;;;;;;24.57;5.37;;;10.40;1.00;;;;;;5056317;28;20196;-80
2022/04/04 10:55:42;;;;;;;14.67;6.13;;;10.50;1.00;;;;;;5079870;28;20178;-79
2022/04/04 10:58:20;;;;;;;16.10;5.50;;;10.50;1.00;;;;;;5073465;28;20199;-80
2022/04/04 11:01:05;;;;;;;19.80;6.73;;;10.50;1.00;;;;;;5072365;28;20273;-80
2022/04/04 11:03:34;;;;;;;29.80;9.43;;;10.50;1.00;;;;;;5073464;28;20193;-80
2022/04/04 11:09:11;;;;;;;28.70;6.17;;;10.50;1.00;;;;;;5070975;28;20194;-79
2022/04/04 11:11:50;;;;;;;49.17;8.30;;;10.50;1.00;;;;;;5073603;28;20183;-79
2022/04/04 11:14:44;;;;;;;14.60;4.90;;;10.60;1.00;;;;;;5083469;28;20194;-80
2022/04/04 11:17:33;;;;;;;39.30;6.13;;;10.60;1.00;;;;;;5072347;28;20643;-78
2022/04/04 11:20:10;;;;;;;23.00;6.00;;;10.70;1.00;;;;;;5071859;28;20198;-79
2022/04/04 11:22:45;;;;;;;7.73;4.80;;;10.70;1.00;;;;;;5071223;28;20185;-78
2022/04/04 11:25:19;;;;;;;17.77;5.37;;;10.60;1.00;;;;;;5071790;28;20182;-78
2022/04/04 11:27:50;;;;;;;19.73;5.23;;;10.60;1.00;;;;;;5072534;28;20593;-82
2022/04/04 11:30:20;;;;;;;19.03;5.40;;;10.50;1.00;;;;;;5075086;28;20678;-79
2022/04/04 11:32:49;;;;;;;13.90;5.07;;;10.50;1.00;;;;;;5071244;28;20200;-79
2022/04/04 11:35:20;;;;;;;16.97;5.10;;;10.50;1.00;;;;;;5070857;28;20195;-79
2022/04/04 11:37:50;;;;;;;22.10;5.27;;;10.40;1.00;;;;;;5070247;28;20236;-79
2022/04/04 11:40:23;;;;;;;16.53;6.90;;;10.50;1.00;;;;;;5059125;28;20658;-79
2022/04/04 11:42:51;;;;;;;11.93;4.40;;;10.50;1.00;;;;;;5051901;28;20270;-79
2022/04/04 11:45:19;;;;;;;52.43;7.67;;;10.60;1.00;;;;;;5051682;28;20198;-79
2022/04/04 11:47:54;;;;;;;36.10;6.20;;;10.60;1.00;;;;;;5067936;28;20251;-79
2022/04/04 11:50:24;;;;;;;43.23;7.50;;;10.60;1.00;;;;;;5075191;28;20559;-79
2022/04/04 11:52:54;;;;;;;83.23;10.60;;;10.40;1.00;;;;;;5074904;28;20233;-79
2022/04/04 11:55:25;;;;;;;53.73;8.43;;;10.40;1.00;;;;;;5075565;28;20189;-80
2022/04/04 11:57:57;;;;;;;42.77;6.87;;;10.30;1.00;;;;;;5075495;28;20334;-79
2022/04/04 12:00:26;;;;;;;25.47;5.43;;;10.30;1.00;;;;;;5075089;28;20194;-79
2022/04/04 12:02:53;;;;;;;26.70;6.57;;;10.30;1.00;;;;;;5075215;28;20203;-79
2022/04/04 12:05:23;;;;;;;14.97;6.20;;;10.40;1.00;;;;;;5074934;28;20283;-79
2022/04/04 12:07:52;;;;;;;27.33;6.20;;;10.40;1.00;;;;;;5075297;28;20238;-79
2022/04/04 12:10:31;;;;;;;26.67;6.50;;;10.50;1.00;;;;;;5085385;28;20248;-80
2022/04/04 12:13:04;;;;;;;35.17;7.23;;;10.40;1.00;;;;;;5073612;28;20212;-80
2022/04/04 12:15:35;;;;;;;118.10;13.50;;;10.40;1.00;;;;;;5076792;28;20234;-80
2022/04/04 12:18:13;;;;;;;68.93;11.03;;;10.40;1.00;;;;;;5076293;28;20678;-84
2022/04/04 12:20:41;;;;;;;116.50;13.70;;;10.50;1.00;;;;;;5078533;28;20658;-81
2022/04/04 12:25:58;;;;;;;36.50;6.50;;;10.60;1.00;;;;;;5073147;28;20192;-81
2022/04/04 12:28:27;;;;;;;54.50;7.57;;;10.50;1.00;;;;;;5077340;28;20199;-81
2022/04/04 12:30:54;;;;;;;53.70;8.53;;;10.40;1.00;;;;;;5074618;28;20216;-80
2022/04/04 12:33:30;;;;;;;29.73;6.57;;;10.30;1.00;;;;;;5074363;28;20202;-80
2022/04/04 12:35:58;;;;;;;15.77;6.53;;;10.20;1.00;;;;;;5082153;28;20194;-81
2022/04/04 12:38:27;;;;;;;28.60;7.13;;;10.20;1.00;;;;;;5074057;28;20279;-79
2022/04/04 12:41:19;;;;;;;72.50;10.37;;;10.10;1.00;;;;;;5076226;28;20193;-81
2022/04/04 12:44:00;;;;;;;97.90;12.13;;;10.00;1.00;;;;;;5063922;28;20196;-80
2022/04/04 12:46:28;;;;;;;62.87;8.43;;;9.90;1.00;;;;;;5074373;28;20755;-79
2022/04/04 12:48:56;;;;;;;47.77;8.13;;;9.80;1.00;;;;;;5074384;28;20285;-79
2022/04/04 12:51:29;;;;;;;108.00;12.77;;;9.80;1.00;;;;;;5074213;28;20216;-81
2022/04/04 12:54:00;;;;;;;183.93;18.13;;;9.70;1.00;;;;;;5076737;28;20188;-80
2022/04/04 12:56:31;;;;;;;61.67;10.17;;;9.60;1.00;;;;;;5074232;28;20279;-80
2022/04/04 12:59:10;;;;;;;43.73;7.27;;;9.50;1.00;;;;;;5074492;28;20214;-80
2022/04/04 13:01:40;;;;;;;23.17;6.70;;;9.40;1.00;;;;;;5097783;28;20195;-86
2022/04/04 13:04:21;;;;;;;29.33;6.40;;;9.30;1.00;;;;;;5074569;28;20206;-84
2022/04/04 13:06:52;;;;;;;26.47;7.30;;;9.30;1.00;;;;;;5066996;28;20198;-85
2022/04/04 13:09:24;;;;;;;50.13;8.30;;;9.20;1.00;;;;;;5057035;28;20219;-82
2022/04/04 13:11:54;;;;;;;48.93;7.57;;;9.20;1.00;;;;;;5053913;28;20331;-82
2022/04/04 13:14:22;;;;;;;34.63;6.93;;;9.20;1.00;;;;;;5053537;28;20548;-82
2022/04/04 13:16:52;;;;;;;37.00;8.90;;;9.20;1.00;;;;;;5053456;28;20619;-82
2022/04/04 13:19:19;;;;;;;195.17;20.63;;;9.10;1.00;;;;;;5053450;28;20603;-83
2022/04/04 13:21:49;;;;;;;38.83;9.90;;;9.10;1.00;;;;;;5053282;28;20189;-82
2022/04/04 13:24:17;;;;;;;24.60;7.80;;;9.00;1.00;;;;;;5053262;28;20732;-82
2022/04/04 13:26:45;;;;;;;30.93;7.80;;;8.90;1.00;;;;;;5053612;28;20273;-83
2022/04/04 13:29:14;;;;;;;27.90;7.27;;;8.80;1.00;;;;;;5053560;28;20193;-83